Terminal Aerodrome Forecast
Issued by NWS

Home | Current Version | Previous Version | Text Only | Print | Product List | Glossary On
Versions: 1 2 3 4 5 6 7 8 9 10 11 12 13
000
FTUS43 KFGF 141100
TAFDVL
TAF
KDVL 141137Z 1412/1512 34015G23KT P6SM BKN025
     FM141600 35015G25KT P6SM BKN035
     FM142300 35014KT P6SM SCT050
      AMD LTD TO CLD VIS AND WIND=

USA.gov is the U.S. government's official web portal to all federal, state and local government web resources and services.